createdAt,value
2018-06-22T00:00:17.062Z,21.15
2018-06-22T00:01:27.200Z,21.25
2018-06-22T00:02:37.274Z,21.18
2018-06-22T00:03:47.343Z,21.16
2018-06-22T00:04:57.167Z,21.16
2018-06-22T00:06:07.258Z,21.19
2018-06-22T00:07:17.083Z,21.19
2018-06-22T00:08:27.166Z,21.22
2018-06-22T00:09:37.269Z,21.09
2018-06-22T00:10:47.347Z,21.11
2018-06-22T00:11:57.424Z,21.13
2018-06-22T00:13:07.498Z,21.13
2018-06-22T00:14:17.583Z,21.08
2018-06-22T00:15:27.663Z,21.01
2018-06-22T00:16:37.732Z,20.91
2018-06-22T00:17:47.548Z,20.98
2018-06-22T00:18:57.635Z,20.93
2018-06-22T00:20:08.990Z,20.9
2018-06-22T00:21:20.982Z,20.83
2018-06-22T00:22:30.523Z,20.82
2018-06-22T00:23:40.590Z,20.82
2018-06-22T00:24:50.662Z,20.82
2018-06-22T00:26:00.735Z,20.81
2018-06-22T00:27:10.829Z,20.78
2018-06-22T00:28:20.641Z,20.83
2018-06-22T00:29:30.719Z,20.71
2018-06-22T00:30:40.799Z,20.75
2018-06-22T00:31:50.621Z,20.75
2018-06-22T00:33:00.703Z,20.71
2018-06-22T00:34:10.790Z,20.68
2018-06-22T00:35:20.916Z,20.63
2018-06-22T00:36:30.999Z,20.56
2018-06-22T00:37:41.076Z,20.56
2018-06-22T00:38:50.899Z,20.44
2018-06-22T00:40:01.048Z,20.46
2018-06-22T00:41:11.181Z,20.44
2018-06-22T00:42:21.252Z,20.51
2018-06-22T00:43:31.337Z,20.48
2018-06-22T00:44:41.401Z,20.48
2018-06-22T00:45:51.202Z,20.37
2018-06-22T00:47:01.277Z,20.34
2018-06-22T00:48:11.363Z,20.35
2018-06-22T00:49:21.171Z,20.4
2018-06-22T00:50:30.993Z,20.29
2018-06-22T00:51:41.110Z,20.32
2018-06-22T00:52:51.177Z,20.3
2018-06-22T00:54:01.249Z,20.29
2018-06-22T00:55:11.315Z,20.22
2018-06-22T00:56:21.125Z,20.22
2018-06-22T00:57:32.184Z,20.19
2018-06-22T00:58:42.239Z,20.15
2018-06-22T00:59:52.337Z,20.18
2018-06-22T01:01:02.454Z,20.15
2018-06-22T01:02:12.275Z,20.19
2018-06-22T01:03:22.347Z,20.12
2018-06-22T01:04:32.429Z,20.08
2018-06-22T01:05:42.231Z,20.08
2018-06-22T01:06:52.310Z,20.07
2018-06-22T01:08:02.390Z,20.15
2018-06-22T01:09:12.516Z,20.04
2018-06-22T01:10:22.337Z,20.15
2018-06-22T01:11:32.400Z,20.12
2018-06-22T01:12:42.478Z,20.07
2018-06-22T01:13:52.542Z,20.04
2018-06-22T01:15:02.696Z,19.98
2018-06-22T01:16:12.768Z,20.04
2018-06-22T01:17:22.588Z,19.95
2018-06-22T01:18:32.684Z,19.98
2018-06-22T01:19:42.777Z,19.98
2018-06-22T01:20:52.855Z,19.95
2018-06-22T01:22:02.942Z,19.85
2018-06-22T01:23:12.751Z,19.9
2018-06-22T01:24:22.837Z,19.98
2018-06-22T01:25:32.643Z,19.9
2018-06-22T01:26:42.726Z,19.87
2018-06-22T01:27:52.548Z,19.85
2018-06-22T01:29:02.645Z,19.9
2018-06-22T01:30:12.191Z,19.83
2018-06-22T01:31:22.308Z,19.85
2018-06-22T01:32:32.378Z,19.78
2018-06-22T01:33:42.202Z,19.78
2018-06-22T01:34:52.005Z,19.79
2018-06-22T01:36:02.069Z,19.8
2018-06-22T01:37:12.120Z,19.82
2018-06-22T01:38:22.239Z,19.78
2018-06-22T01:39:32.335Z,19.78
2018-06-22T01:40:41.884Z,19.78
2018-06-22T01:41:51.948Z,19.79
2018-06-22T01:43:01.790Z,19.74
2018-06-22T01:44:11.942Z,19.85
2018-06-22T01:45:22.010Z,19.79
2018-06-22T01:46:32.081Z,19.78
2018-06-22T01:47:41.632Z,19.68
2018-06-22T01:48:51.715Z,19.68
2018-06-22T01:50:01.801Z,19.68
2018-06-22T01:51:11.873Z,19.65
2018-06-22T01:52:21.689Z,19.67
2018-06-22T01:53:31.758Z,19.67
2018-06-22T01:54:41.586Z,19.71
2018-06-22T01:55:51.716Z,19.65
2018-06-22T01:57:01.785Z,19.65
2018-06-22T01:58:11.836Z,19.67
2018-06-22T01:59:21.907Z,19.68
2018-06-22T02:00:32.037Z,19.65
2018-06-22T02:01:42.112Z,19.67
2018-06-22T02:02:52.213Z,19.7
2018-06-22T02:04:02.275Z,19.65
2018-06-22T02:05:12.373Z,19.52
2018-06-22T02:06:22.472Z,19.47
2018-06-22T02:07:32.592Z,19.61
2018-06-22T02:08:42.400Z,19.6
2018-06-22T02:09:52.469Z,19.53
2018-06-22T02:11:02.551Z,19.53
2018-06-22T02:12:12.624Z,19.56
2018-06-22T02:13:22.805Z,19.52
2018-06-22T02:14:32.632Z,19.45
2018-06-22T02:15:42.718Z,19.47
2018-06-22T02:16:52.525Z,19.4
2018-06-22T02:18:02.608Z,19.37
2018-06-22T02:19:12.425Z,19.46
2018-06-22T02:20:22.512Z,19.46
2018-06-22T02:21:32.595Z,19.46
2018-06-22T02:22:42.687Z,19.4
2018-06-22T02:23:52.781Z,19.43
2018-06-22T02:25:02.852Z,19.38
2018-06-22T02:26:12.650Z,19.35
2018-06-22T02:27:22.718Z,19.27
2018-06-22T02:28:32.853Z,19.3
2018-06-22T02:29:43.020Z,19.31
2018-06-22T02:30:52.581Z,19.25
2018-06-22T02:32:02.408Z,19.25
2018-06-22T02:33:12.484Z,19.25
2018-06-22T02:34:22.543Z,19.27
2018-06-22T02:35:32.378Z,19.2
2018-06-22T02:36:42.561Z,19.28
2018-06-22T02:37:52.644Z,19.19
2018-06-22T02:39:02.711Z,19.2
2018-06-22T02:40:12.827Z,19.2
2018-06-22T02:41:22.908Z,19.23
2018-06-22T02:42:32.988Z,19.16
2018-06-22T02:43:43.122Z,19.19
2018-06-22T02:44:53.241Z,19.17
2018-06-22T02:46:03.325Z,19.19
2018-06-22T02:47:13.140Z,19.13
2018-06-22T02:48:23.241Z,19.07
2018-06-22T02:49:33.048Z,19.05
2018-06-22T02:50:43.111Z,19.09
2018-06-22T02:51:53.284Z,19.12
2018-06-22T02:53:03.601Z,19.12
2018-06-22T02:54:13.473Z,19.06
2018-06-22T02:55:23.579Z,19.09
2018-06-22T02:56:33.404Z,19
2018-06-22T02:57:43.468Z,18.99
2018-06-22T02:58:53.289Z,18.99
2018-06-22T03:00:03.605Z,19.13
2018-06-22T03:01:13.445Z,18.99
2018-06-22T03:02:23.518Z,19.05
2018-06-22T03:34:37.797Z,17.46
2018-06-22T03:35:47.861Z,17.46
2018-06-22T03:36:57.924Z,17.45
2018-06-22T03:38:07.993Z,17.47
2018-06-22T03:39:17.797Z,17.6
2018-06-22T03:40:27.950Z,17.6
2018-06-22T03:41:37.792Z,17.65
2018-06-22T03:42:47.901Z,17.6
2018-06-22T03:43:57.969Z,17.83
2018-06-22T03:45:08.067Z,17.9
2018-06-22T03:46:17.950Z,17.96
2018-06-22T03:47:28.029Z,18.08
2018-06-22T03:48:37.590Z,18.17
2018-06-22T03:49:47.678Z,18.19
2018-06-22T03:50:57.756Z,18.34
2018-06-22T03:52:07.560Z,18.44
2018-06-22T03:53:17.625Z,18.57
2018-06-22T03:54:26.915Z,18.5
2018-06-22T03:55:36.996Z,18.57
2018-06-22T03:56:46.887Z,18.6
2018-06-22T03:57:57.188Z,18.63
2018-06-22T03:59:07.263Z,18.71
2018-06-22T04:00:17.070Z,18.75
2018-06-22T04:01:26.889Z,18.75
2018-06-22T04:02:36.952Z,18.84
2018-06-22T04:03:47.058Z,18.86
2018-06-22T04:04:56.871Z,18.84
2018-06-22T04:06:06.711Z,18.9
2018-06-22T04:07:16.793Z,18.87
2018-06-22T04:08:26.872Z,18.99
2018-06-22T04:09:36.959Z,18.97
2018-06-22T04:10:47.034Z,19.06
2018-06-22T04:11:56.853Z,18.96
2018-06-22T04:13:06.409Z,19.15
2018-06-22T04:14:16.479Z,19.07
2018-06-22T04:15:26.563Z,19.24
2018-06-22T04:16:36.649Z,19.23
2018-06-22T04:17:46.191Z,19.25
2018-06-22T04:18:55.755Z,19.24
2018-06-22T04:20:05.833Z,19.19
2018-06-22T04:21:15.912Z,19.19
2018-06-22T04:22:25.724Z,19.15
2018-06-22T04:23:35.794Z,19.19
2018-06-22T04:24:45.605Z,19.17
2018-06-22T04:25:55.705Z,19.27
2018-06-22T04:27:05.783Z,19.2
2018-06-22T04:28:15.865Z,19.24
2018-06-22T04:29:25.945Z,19.3
2018-06-22T04:30:36.040Z,19.31
2018-06-22T04:31:46.113Z,19.31
2018-06-22T04:32:55.980Z,19.37
2018-06-22T04:34:06.049Z,19.45
2018-06-22T04:35:16.117Z,19.38
2018-06-22T04:36:26.175Z,19.34
2018-06-22T04:37:35.995Z,19.38
2018-06-22T04:38:46.353Z,19.28
2018-06-22T04:39:56.500Z,19.28
2018-06-22T04:41:06.573Z,19.24
2018-06-22T04:42:16.129Z,19.27
2018-06-22T04:43:26.217Z,19.27
2018-06-22T04:44:36.335Z,19.24
2018-06-22T04:45:46.404Z,19.24
2018-06-22T04:46:56.485Z,19.27
2018-06-22T04:48:06.554Z,19.23
2018-06-22T04:49:16.375Z,19.25
2018-06-22T04:50:26.465Z,19.27
2018-06-22T04:51:36.545Z,19.2
2018-06-22T04:52:46.364Z,19.23
2018-06-22T04:53:56.447Z,19.19
2018-06-22T04:55:06.527Z,19.25
2018-06-22T04:56:16.220Z,19.2
2018-06-22T04:57:26.534Z,19.25
2018-06-22T04:58:36.617Z,19.24
2018-06-22T04:59:46.673Z,19.25
2018-06-22T05:00:56.728Z,19.23
2018-06-22T05:02:06.807Z,19.19
2018-06-22T05:03:16.900Z,19.13
2018-06-22T05:04:26.965Z,19.2
2018-06-22T05:05:37.017Z,19.27
2018-06-22T05:06:47.128Z,19.2
2018-06-22T05:07:57.259Z,19.19
2018-06-22T05:09:07.343Z,19.2
2018-06-22T05:10:17.413Z,19.12
2018-06-22T05:11:27.236Z,19.1
2018-06-22T05:12:37.311Z,19.15
2018-06-22T05:13:47.173Z,19.12
2018-06-22T05:14:57.251Z,19.07
2018-06-22T05:16:07.330Z,18.96
2018-06-22T05:17:17.413Z,18.97
2018-06-22T05:18:27.466Z,19.06
2018-06-22T05:19:37.257Z,19.07
2018-06-22T05:20:47.334Z,19.06
2018-06-22T05:21:57.405Z,19.1
2018-06-22T05:23:07.481Z,19.16
2018-06-22T05:24:17.548Z,19.15
2018-06-22T05:25:27.615Z,19.2
2018-06-22T05:26:37.442Z,19.15
2018-06-22T05:27:47.528Z,19.15
2018-06-22T05:28:57.610Z,19.12
2018-06-22T05:30:07.433Z,19.2
2018-06-22T05:31:17.610Z,19.09
2018-06-22T05:32:27.676Z,19.09
2018-06-22T05:33:37.754Z,19.17
2018-06-22T05:34:47.821Z,19.06
2018-06-22T05:35:58.107Z,19.16
2018-06-22T05:37:08.194Z,19.2
2018-06-22T05:38:18.254Z,19.24
2018-06-22T05:39:28.327Z,19.25
2018-06-22T05:40:38.397Z,19.27
2018-06-22T05:41:47.934Z,19.34
2018-06-22T05:42:57.734Z,19.31
2018-06-22T05:44:07.808Z,19.31
2018-06-22T05:45:17.615Z,19.28
2018-06-22T05:46:27.750Z,19.32
2018-06-22T05:47:37.817Z,19.23
2018-06-22T05:48:47.631Z,19.28
2018-06-22T05:49:57.696Z,19.24
2018-06-22T05:51:08.012Z,19.13
2018-06-22T05:52:18.079Z,19.09
2018-06-22T05:53:27.889Z,19.12
2018-06-22T05:54:37.960Z,19.06
2018-06-22T05:55:47.767Z,19.09
2018-06-22T05:56:57.973Z,19.1
2018-06-22T05:58:08.054Z,19.15
2018-06-22T05:59:17.850Z,19.16
2018-06-22T06:00:27.655Z,19.15
2018-06-22T06:01:37.458Z,19.19
2018-06-22T06:02:47.005Z,19.24
2018-06-22T06:03:56.818Z,19.23
2018-06-22T06:05:06.909Z,19.24
2018-06-22T06:06:16.756Z,19.31
2018-06-22T06:07:26.812Z,19.24
2018-06-22T06:08:36.879Z,19.24
2018-06-22T06:09:46.690Z,19.2
2018-06-22T06:10:56.551Z,19.23
2018-06-22T06:12:06.625Z,19.28
2018-06-22T06:13:16.444Z,19.34
2018-06-22T06:14:26.507Z,19.31
2018-06-22T06:15:36.590Z,19.28
2018-06-22T06:16:46.669Z,19.28
2018-06-22T06:17:56.736Z,19.27
2018-06-22T06:19:06.559Z,19.25
2018-06-22T06:20:16.392Z,19.23
2018-06-22T06:21:26.207Z,19.09
2018-06-22T06:22:36.298Z,19.06
2018-06-22T06:23:46.395Z,19.09
2018-06-22T06:24:56.472Z,19.16
2018-06-22T06:26:06.549Z,19.12
2018-06-22T06:27:16.705Z,19.15
2018-06-22T06:28:26.936Z,19.19
2018-06-22T06:29:36.784Z,19.15
2018-06-22T06:30:46.603Z,19.09
2018-06-22T06:31:56.698Z,19.2
2018-06-22T06:33:06.531Z,19.17
2018-06-22T06:34:16.706Z,19.19
2018-06-22T06:35:26.975Z,19.16
2018-06-22T06:36:36.797Z,19.19
2018-06-22T06:37:46.872Z,19.2
2018-06-22T06:38:56.684Z,19.15
2018-06-22T06:40:06.772Z,19.16
2018-06-22T06:41:16.848Z,19.06
2018-06-22T06:42:26.935Z,19.19
2018-06-22T06:43:36.763Z,19.28
2018-06-22T06:44:46.827Z,19.31
2018-06-22T06:45:56.916Z,19.4
2018-06-22T06:47:06.722Z,19.4
2018-06-22T06:48:16.529Z,19.4
2018-06-22T06:49:26.613Z,19.45
2018-06-22T06:50:36.754Z,19.42
2018-06-22T06:51:46.850Z,19.37
2018-06-22T06:52:56.970Z,19.42
2018-06-22T06:54:07.051Z,19.45
2018-06-22T06:55:17.121Z,19.45
2018-06-22T06:56:27.206Z,19.56
2018-06-22T06:57:37.328Z,19.68
2018-06-22T06:58:47.389Z,19.64
2018-06-22T06:59:57.450Z,19.6
2018-06-22T07:01:07.297Z,19.63
2018-06-22T07:02:17.114Z,19.56
2018-06-22T07:03:27.191Z,19.64
2018-06-22T07:04:37.278Z,19.63
2018-06-22T07:05:47.342Z,19.57
2018-06-22T07:06:57.168Z,19.64
2018-06-22T07:08:07.250Z,19.65
2018-06-22T07:09:17.336Z,19.64
2018-06-22T07:10:27.126Z,19.6
2018-06-22T07:11:37.189Z,19.63
2018-06-22T07:12:47.285Z,19.63
2018-06-22T07:13:57.365Z,19.63
2018-06-22T07:15:07.449Z,19.56
2018-06-22T07:16:17.524Z,19.52
2018-06-22T07:17:27.600Z,19.46
2018-06-22T07:18:37.411Z,19.47
2018-06-22T07:19:47.483Z,19.4
2018-06-22T07:20:57.565Z,19.42
2018-06-22T07:22:07.436Z,19.49
2018-06-22T07:23:17.510Z,19.55
2018-06-22T07:24:27.675Z,19.5
2018-06-22T07:25:37.755Z,19.55
2018-06-22T07:26:47.838Z,19.47
2018-06-22T07:29:07.203Z,19.64
2018-06-22T07:30:17.291Z,19.61
2018-06-22T07:31:27.367Z,19.78
2018-06-22T07:32:37.190Z,19.89
2018-06-22T07:33:47.246Z,19.97
2018-06-22T07:34:57.065Z,20.01
2018-06-22T07:36:07.535Z,19.97
2018-06-22T07:37:17.342Z,20.04
2018-06-22T07:38:27.132Z,20.12
2018-06-22T07:39:36.953Z,20.1
2018-06-22T07:40:47.010Z,20.2
2018-06-22T07:41:57.111Z,20.19
2018-06-22T07:43:07.187Z,20.22
2018-06-22T07:44:17.254Z,20.29
2018-06-22T07:45:27.319Z,20.4
2018-06-22T07:46:36.942Z,20.32
2018-06-22T07:47:47.019Z,20.29
2018-06-22T07:48:57.098Z,20.38
2018-06-22T07:50:06.913Z,20.38
2018-06-22T07:51:16.981Z,20.51
2018-06-22T07:52:26.847Z,20.44
2018-06-22T07:53:36.922Z,20.44
2018-06-22T07:54:46.735Z,20.58
2018-06-22T07:55:56.791Z,20.71
2018-06-22T07:57:06.871Z,20.76
2018-06-22T07:58:17.059Z,20.75
2018-06-22T07:59:27.165Z,20.76
2018-06-22T08:00:37.232Z,20.82
2018-06-22T08:01:47.308Z,20.79
2018-06-22T08:02:57.376Z,20.91
2018-06-22T08:04:07.485Z,21.13
2018-06-22T08:05:17.307Z,21.19
2018-06-22T08:06:27.601Z,21.49
2018-06-22T08:07:37.409Z,21.67
2018-06-22T08:08:47.523Z,21.82
2018-06-22T08:09:57.098Z,21.78
2018-06-22T08:11:07.167Z,21.82
2018-06-22T08:12:17.244Z,21.86
2018-06-22T08:13:27.309Z,22
2018-06-22T08:14:37.480Z,22.16
2018-06-22T08:15:47.385Z,22.3
2018-06-22T08:16:57.635Z,22.46
2018-06-22T08:18:07.460Z,22.63
2018-06-22T08:19:17.553Z,22.67
2018-06-22T08:20:27.384Z,22.66
2018-06-22T08:21:37.246Z,22.7
2018-06-22T08:22:47.320Z,22.75
2018-06-22T08:23:57.397Z,22.94
2018-06-22T08:25:07.514Z,23.25
2018-06-22T08:26:17.594Z,23.5
2018-06-22T08:27:27.685Z,23.66
2018-06-22T08:28:37.773Z,23.79
2018-06-22T08:29:47.598Z,23.93
2018-06-22T08:30:57.686Z,24.18
2018-06-22T08:32:07.549Z,24.33
2018-06-22T08:33:17.673Z,24.49
2018-06-22T08:34:28.670Z,24.71
2018-06-22T08:35:41.573Z,24.59
2018-06-22T08:36:53.215Z,24.67
2018-06-22T08:38:02.763Z,24.83
2018-06-22T08:39:12.866Z,24.67
2018-06-22T08:40:22.416Z,24.45
2018-06-22T08:41:32.680Z,24.37
2018-06-22T08:42:42.997Z,24.12
2018-06-22T08:43:52.836Z,24
2018-06-22T08:45:02.652Z,23.92
2018-06-22T08:46:12.753Z,23.79
2018-06-22T08:47:22.858Z,23.64
2018-06-22T08:48:32.932Z,23.6
2018-06-22T08:49:43.003Z,23.64
2018-06-22T08:50:52.616Z,23.6
2018-06-22T08:52:02.732Z,23.55
2018-06-22T08:53:12.600Z,23.53
2018-06-22T08:54:22.672Z,23.55
2018-06-22T08:55:32.467Z,23.35
2018-06-22T08:56:42.761Z,23.07
2018-06-22T08:57:52.880Z,22.89
2018-06-22T08:59:02.945Z,22.69
2018-06-22T09:00:13.014Z,22.51
2018-06-22T09:01:23.287Z,22.42
2018-06-22T09:02:33.504Z,22.31
2018-06-22T09:03:43.329Z,22.3
2018-06-22T09:04:53.426Z,22.33
2018-06-22T09:06:03.551Z,22.31
2018-06-22T09:07:13.648Z,22.27
2018-06-22T09:08:23.844Z,22.26
2018-06-22T09:09:33.952Z,22.11
2018-06-22T09:10:43.775Z,22.09
2018-06-22T09:11:53.063Z,22.07
2018-06-22T09:13:03.141Z,22.05
2018-06-22T09:14:13.214Z,21.99
2018-06-22T09:15:23.364Z,21.96
2018-06-22T09:16:33.178Z,22.12
2018-06-22T09:17:43.276Z,22.16
2018-06-22T09:18:53.343Z,22.24
2018-06-22T09:20:03.411Z,22.29
2018-06-22T09:21:13.490Z,22.45
2018-06-22T09:22:23.326Z,22.46
2018-06-22T09:23:33.446Z,22.55
2018-06-22T09:24:43.535Z,22.7
2018-06-22T09:25:53.622Z,22.71
2018-06-22T09:27:03.445Z,22.75
2018-06-22T09:28:13.544Z,22.92
2018-06-22T09:29:23.615Z,23.06
2018-06-22T09:30:33.693Z,23.24
2018-06-22T09:31:43.236Z,23.48
2018-06-22T09:32:53.327Z,23.66
2018-06-22T09:34:03.412Z,23.92
2018-06-22T09:35:13.518Z,24.4
2018-06-22T09:36:23.591Z,24.75
2018-06-22T09:37:33.684Z,24.94
2018-06-22T09:38:43.760Z,25.26
2018-06-22T09:39:53.839Z,25.29
2018-06-22T09:41:03.938Z,25.19
2018-06-22T09:42:13.751Z,25.07
2018-06-22T09:43:23.857Z,24.9
2018-06-22T09:44:33.926Z,24.83
2018-06-22T09:45:44.042Z,24.61
2018-06-22T09:46:54.142Z,24.54
2018-06-22T09:48:04.027Z,24.49
2018-06-22T09:49:13.844Z,24.51
2018-06-22T09:50:23.966Z,24.56
2018-06-22T09:51:34.050Z,24.63
2018-06-22T09:52:44.113Z,24.69
2018-06-22T09:53:53.930Z,24.82
2018-06-22T09:55:04.044Z,24.85
2018-06-22T09:56:14.023Z,24.96
2018-06-22T09:57:24.100Z,25.12
2018-06-22T09:58:34.192Z,25.27
2018-06-22T09:59:44.273Z,25.37
2018-06-22T10:00:54.200Z,25.44
2018-06-22T10:02:04.049Z,25.52
2018-06-22T10:03:13.883Z,25.6
2018-06-22T10:04:23.971Z,25.66
2018-06-22T10:05:34.055Z,25.66
2018-06-22T10:06:43.868Z,25.63
2018-06-22T10:07:53.684Z,25.59
2018-06-22T10:09:03.766Z,25.59
2018-06-22T10:10:13.871Z,25.59
2018-06-22T10:11:23.751Z,25.6
2018-06-22T10:12:33.998Z,25.62
2018-06-22T10:13:44.076Z,25.74
2018-06-22T10:14:54.185Z,25.78
2018-06-22T10:16:04.255Z,25.89
2018-06-22T10:17:14.337Z,25.93
2018-06-22T10:18:24.176Z,26.01
2018-06-22T10:19:34.342Z,26.2
2018-06-22T10:20:44.552Z,26.41
2018-06-22T10:21:54.645Z,26.6
2018-06-22T10:23:04.726Z,26.89
2018-06-22T10:24:14.297Z,26.96
2018-06-22T10:25:24.376Z,27.05
2018-06-22T10:26:34.448Z,27.12
2018-06-22T10:27:44.278Z,27.33
2018-06-22T10:28:54.364Z,27.49
2018-06-22T10:30:04.453Z,27.55
2018-06-22T10:31:14.289Z,27.72
2018-06-22T10:32:24.359Z,27.86
2018-06-22T10:33:34.448Z,27.86
2018-06-22T10:34:44.536Z,27.69
2018-06-22T10:35:54.644Z,27.61
2018-06-22T10:37:04.731Z,27.36
2018-06-22T10:38:14.824Z,27.27
2018-06-22T10:39:24.777Z,27.11
2018-06-22T10:40:34.871Z,26.99
2018-06-22T10:41:44.994Z,26.94
2018-06-22T10:42:55.089Z,26.79
2018-06-22T10:44:05.169Z,26.74
2018-06-22T10:45:15.263Z,26.93
2018-06-22T10:46:25.092Z,26.97
2018-06-22T10:47:35.198Z,26.93
2018-06-22T10:48:45.285Z,27.28
2018-06-22T10:49:55.379Z,27.98
2018-06-22T10:51:05.471Z,28.79
2018-06-22T10:52:15.532Z,29.33
2018-06-22T10:53:25.628Z,29.77
2018-06-22T10:54:35.715Z,29.88
2018-06-22T10:55:45.561Z,29.82
2018-06-22T10:56:55.382Z,29.82
2018-06-22T10:58:05.241Z,29.65
2018-06-22T10:59:15.316Z,29.61
2018-06-22T11:00:25.407Z,29.45
2018-06-22T11:01:35.489Z,29.21
2018-06-22T11:02:45.303Z,29.17
2018-06-22T11:03:55.131Z,28.91
2018-06-22T11:05:05.232Z,28.88
2018-06-22T11:06:15.308Z,28.75
2018-06-22T11:07:25.133Z,28.73
2018-06-22T11:08:34.966Z,28.7
2018-06-22T11:09:45.063Z,28.63
2018-06-22T11:10:55.177Z,28.41
2018-06-22T11:12:05.315Z,28.3
2018-06-22T11:13:15.145Z,28.12
2018-06-22T11:14:25.989Z,28.12
2018-06-22T11:15:36.144Z,28.06
2018-06-22T11:16:47.435Z,28.02
2018-06-22T11:17:58.351Z,28.05
2018-06-22T11:19:08.639Z,28.01
2018-06-22T11:20:20.116Z,27.99
2018-06-22T11:21:32.759Z,28.02
2018-06-22T11:22:44.774Z,27.89
2018-06-22T11:23:57.495Z,27.83
2018-06-22T11:25:09.181Z,27.76
2018-06-22T11:26:20.840Z,27.72
2018-06-22T11:27:31.769Z,27.69
2018-06-22T11:28:42.013Z,27.71
2018-06-22T11:29:51.883Z,27.68
2018-06-22T11:31:01.984Z,27.55
2018-06-22T11:32:11.935Z,27.61
2018-06-22T11:33:21.800Z,27.46
2018-06-22T11:34:31.926Z,27.48
2018-06-22T11:35:41.944Z,27.49
2018-06-22T11:36:51.634Z,27.52
2018-06-22T11:38:01.709Z,27.65
2018-06-22T11:39:11.555Z,27.83
2018-06-22T11:40:21.730Z,27.96
2018-06-22T11:41:31.868Z,27.98
2018-06-22T11:42:41.931Z,28.05
2018-06-22T11:43:51.758Z,28.14
2018-06-22T11:45:01.893Z,27.91
2018-06-22T11:46:11.697Z,27.98
2018-06-22T11:47:21.776Z,27.84
2018-06-22T11:48:31.853Z,27.98
2018-06-22T11:49:41.941Z,28.27
2018-06-22T11:50:52.014Z,28.45
2018-06-22T11:52:01.912Z,28.08
2018-06-22T11:53:11.997Z,27.98
2018-06-22T11:54:22.079Z,28.01
2018-06-22T11:55:32.160Z,28.43
2018-06-22T11:56:42.255Z,28.88
2018-06-22T11:57:52.175Z,29.17
2018-06-22T11:59:01.990Z,29.51
2018-06-22T12:00:11.927Z,29.6
2018-06-22T12:01:21.758Z,29.76
2018-06-22T12:02:31.612Z,29.54
2018-06-22T12:03:41.428Z,30
2018-06-22T12:04:51.819Z,30.31
2018-06-22T12:06:01.924Z,30.73
2018-06-22T12:07:12.024Z,30.85
2018-06-22T12:08:22.110Z,30.47
2018-06-22T12:09:32.195Z,30.26
2018-06-22T12:10:42.017Z,30.06
2018-06-22T12:11:52.130Z,30
2018-06-22T12:13:02.208Z,29.94
2018-06-22T12:14:12.284Z,29.94
2018-06-22T12:15:22.437Z,29.92
2018-06-22T12:16:32.531Z,29.79
2018-06-22T12:17:42.347Z,29.54
2018-06-22T12:18:52.429Z,29.4
2018-06-22T12:20:02.571Z,29.33
2018-06-22T12:21:12.454Z,29.29
2018-06-22T12:22:22.528Z,29.03
2018-06-22T12:23:32.632Z,28.95
2018-06-22T12:24:42.472Z,28.88
2018-06-22T12:25:52.311Z,28.79
2018-06-22T12:27:02.170Z,28.64
2018-06-22T12:28:11.984Z,28.67
2018-06-22T12:29:22.069Z,28.7
2018-06-22T12:30:32.143Z,28.63
2018-06-22T12:31:42.260Z,28.8
2018-06-22T12:32:52.155Z,28.83
2018-06-22T12:34:02.298Z,28.72
2018-06-22T12:35:12.378Z,28.67
2018-06-22T12:36:22.207Z,28.65
2018-06-22T12:37:32.305Z,28.6
2018-06-22T12:38:42.486Z,28.53
2018-06-22T12:39:52.289Z,28.49
2018-06-22T12:41:02.375Z,28.33
2018-06-22T12:42:12.204Z,28.21
2018-06-22T12:43:22.290Z,28.11
2018-06-22T12:44:32.108Z,28.06
2018-06-22T12:45:41.925Z,27.98
2018-06-22T12:46:52.001Z,27.86
2018-06-22T12:48:02.099Z,27.64
2018-06-22T12:49:12.190Z,27.34
2018-06-22T12:50:22.008Z,27.08
2018-06-22T12:51:32.174Z,26.89
2018-06-22T12:52:42.242Z,26.6
2018-06-22T12:53:52.330Z,26.3
2018-06-22T12:55:02.468Z,26.03
2018-06-22T12:56:12.569Z,25.85
2018-06-22T12:57:22.119Z,25.52
2018-06-22T12:58:31.948Z,25.34
2018-06-22T12:59:42.025Z,24.97
2018-06-22T13:00:52.178Z,24.8
2018-06-22T13:02:02.284Z,24.51
2018-06-22T13:03:12.362Z,24.3
2018-06-22T13:04:22.459Z,24.08
2018-06-22T13:05:32.296Z,23.82
2018-06-22T13:06:42.125Z,23.71
2018-06-22T13:07:52.208Z,23.53
2018-06-22T13:09:02.312Z,23.4
2018-06-22T13:10:12.198Z,23.26
2018-06-22T13:11:22.022Z,23.18
2018-06-22T13:12:32.089Z,23.12
2018-06-22T13:13:42.238Z,22.92
2018-06-22T13:14:52.323Z,23
2018-06-22T13:16:02.400Z,22.79
2018-06-22T13:17:12.558Z,22.76
2018-06-22T13:18:22.362Z,22.66
2018-06-22T13:19:32.460Z,22.63
2018-06-22T13:20:42.307Z,22.57
2018-06-22T13:21:52.148Z,22.42
2018-06-22T13:23:02.404Z,22.33
2018-06-22T13:24:12.724Z,22.22
2018-06-22T13:25:22.582Z,22.24
2018-06-22T13:26:32.674Z,22.23
2018-06-22T13:27:42.782Z,22.12
2018-06-22T13:28:52.890Z,22.07
2018-06-22T13:30:02.743Z,22
2018-06-22T13:31:12.865Z,21.92
2018-06-22T13:32:22.684Z,21.94
2018-06-22T13:33:32.782Z,21.86
2018-06-22T13:34:42.888Z,21.82
2018-06-22T13:35:53.003Z,21.96
2018-06-22T13:37:03.145Z,21.83
2018-06-22T13:38:13.297Z,21.8
2018-06-22T13:39:23.113Z,21.8
2018-06-22T13:40:33.211Z,21.83
2018-06-22T13:41:43.282Z,21.89
2018-06-22T13:42:53.155Z,21.86
2018-06-22T13:44:03.235Z,21.96
2018-06-22T13:45:13.335Z,21.89
2018-06-22T13:46:23.430Z,21.97
2018-06-22T13:47:33.525Z,21.99
2018-06-22T13:48:43.404Z,22.07
2018-06-22T13:49:53.508Z,22.15
2018-06-22T13:51:03.584Z,22.26
2018-06-22T13:52:13.687Z,22.27
2018-06-22T13:53:23.771Z,22.39
2018-06-22T13:54:33.630Z,22.66
2018-06-22T13:55:43.744Z,22.81
2018-06-22T13:56:53.708Z,23
2018-06-22T13:58:04.051Z,23.15
2018-06-22T13:59:13.878Z,23.28
2018-06-22T14:00:24.014Z,23.53
2018-06-22T14:01:34.087Z,23.62
2018-06-22T14:02:44.200Z,23.67
2018-06-22T14:03:54.450Z,23.85
2018-06-22T14:12:30.952Z,26.19
2018-06-22T14:13:41.113Z,26.52
2018-06-22T14:14:50.951Z,26.71
2018-06-22T14:16:01.047Z,26.78
2018-06-22T14:17:10.887Z,26.76
2018-06-22T14:18:21.033Z,26.79
2018-06-22T14:19:30.867Z,26.74
2018-06-22T14:21:44.594Z,26.78
2018-06-22T14:22:54.675Z,26.72
2018-06-22T14:24:05.015Z,26.63
2018-06-22T14:25:15.092Z,26.59
2018-06-22T14:26:25.173Z,26.41
2018-06-22T14:27:35.251Z,26.39
2018-06-22T14:28:45.074Z,26.24
2018-06-22T14:29:54.890Z,26.16
2018-06-22T14:31:05.113Z,26.16
2018-06-22T14:32:15.320Z,26.03
2018-06-22T14:33:25.405Z,26.22
2018-06-22T14:34:35.504Z,26.12
2018-06-22T14:35:45.327Z,25.99
2018-06-22T14:36:54.890Z,25.93
2018-06-22T14:38:04.994Z,25.91
2018-06-22T14:39:15.101Z,26.01
2018-06-22T14:40:24.905Z,26.03
2018-06-22T14:41:34.991Z,26.35
2018-06-22T14:42:45.097Z,26.57
2018-06-22T14:43:55.207Z,26.54
2018-06-22T14:45:05.320Z,26.56
2018-06-22T14:46:15.417Z,26.56
2018-06-22T14:47:25.500Z,26.56
2018-06-22T14:48:35.328Z,26.45
2018-06-22T14:49:45.410Z,26.41
2018-06-22T14:50:55.230Z,26.41
2018-06-22T14:52:05.062Z,26.3
2018-06-22T14:53:15.184Z,26.3
2018-06-22T14:54:25.277Z,26.22
2018-06-22T14:55:35.370Z,26.06
2018-06-22T14:56:45.464Z,26.01
2018-06-22T14:57:55.542Z,25.94
2018-06-22T14:59:05.695Z,25.86
2018-06-22T15:00:15.785Z,25.84
2018-06-22T15:01:25.865Z,25.81
2018-06-22T15:02:35.969Z,25.81
2018-06-22T15:03:46.071Z,25.63
2018-06-22T15:04:56.248Z,25.69
2018-06-22T15:06:06.364Z,25.6
2018-06-22T15:07:16.620Z,25.49
2018-06-22T15:08:26.690Z,25.42
2018-06-22T15:09:36.790Z,25.37
2018-06-22T15:10:46.925Z,25.32
2018-06-22T15:11:56.755Z,25.38
2018-06-22T15:13:06.325Z,25.33
2018-06-22T15:14:16.156Z,25.27
2018-06-22T15:15:26.237Z,25.23
2018-06-22T15:16:36.333Z,25.19
2018-06-22T15:17:46.407Z,25.27
2018-06-22T15:18:56.511Z,25.15
2018-06-22T15:20:06.620Z,25.12
2018-06-22T15:21:16.459Z,24.97
2018-06-22T15:22:26.623Z,24.85
2018-06-22T15:23:36.695Z,24.8
2018-06-22T15:24:46.781Z,24.77
2018-06-22T15:25:56.888Z,24.69
2018-06-22T15:27:06.736Z,24.54
2018-06-22T15:28:16.576Z,24.34
2018-06-22T15:29:26.669Z,24.18
2018-06-22T15:30:36.744Z,24.15
2018-06-22T15:31:46.583Z,24
2018-06-22T15:32:56.689Z,23.9
2018-06-22T15:34:06.529Z,23.97
2018-06-22T15:35:16.613Z,23.81
2018-06-22T15:36:26.741Z,23.7
2018-06-22T15:37:36.836Z,23.55
2018-06-22T15:38:46.675Z,23.37
2018-06-22T15:39:56.724Z,23.25
2018-06-22T15:41:06.838Z,23.18
2018-06-22T15:42:16.903Z,23.14
2018-06-22T15:43:26.979Z,23.16
2018-06-22T15:44:36.826Z,23
2018-06-22T15:45:47.087Z,22.89
2018-06-22T15:46:57.174Z,22.61